AirNav   Everest Fuels
 
 1405 users online  

IL16 Klein-O'Neal Airport
Lawrenceville, Illinois, USA

GOING TO LAWRENCEVILLE?


FAA INFORMATION EFFECTIVE 01 DECEMBER 2022

Location

FAA Identifier: IL16
Lat/Long: 38-41-09.4100N 087-32-39.7200W
38-41.156833N 087-32.662000W
38.6859472,-87.5443667
(estimated)
Elevation: 413 ft. / 126 m (estimated)
From city: 7 miles SE of LAWRENCEVILLE, IL
Time zone: UTC -6 (UTC -5 during Daylight Saving Time)
Zip code: 47591

Airport Operations

Airport use: Private use. Permission required prior to landing
Activation date: 07/2015
Control tower: no
ARTCC: INDIANAPOLIS CENTER
FSS: TERRE HAUTE FLIGHT SERVICE STATION
Attendance: UNATNDED
Wind indicator: yes
Segmented circle: no

Airport Communications

WX ASOS at LWV (6 nm NW): 118.0 (618-943-5252)
WX AWOS-3 at AJG (10 nm SW): 134.900 (618-948-2184)
WX AWOS-3PT at DCY (19 nm E): 124.1 (812-257-8889)

Nearby radio navigation aids

NDB name  Hdg/Dist  Freq  Var  ID
PALESTINE170/20.239103WPLX .--. .-.. -..-
OLNEY097/29.527203WOLY --- .-.. -.--

Airport Services

Runway Information

Runway 12/30

Dimensions: 1000 x 100 ft. / 305 x 30 m
Surface: turf
RUNWAY 12  RUNWAY 30
Traffic pattern: leftleft

Airport Ownership and Management from official FAA records

Ownership: Privately-owned
Owner: ROBERT KLEIN
RR2 BOX 45A
LAWRENCEVILLE, IL 62439
Phone 618-884-1040
Manager: ROBERT KLEIN
RR 2 BOX 45A
LAWRENCEVILLE, IL 62439
Phone 618-884-1040

Airport Operational Statistics

Aircraft based on the field: 3
Single engine airplanes: 3
    

Additional Remarks

FOR CD CTC EVANSVILLE APCH AT 812-436-4690, WHEN APCH CLSD CTC INDIANAPOLIS ARTCC AT 317-247-2411.

Instrument Procedures

There are no published instrument procedures at IL16.

Some nearby airports with instrument procedures:

KLWV - Lawrenceville-Vincennes International Airport (6 nm NW)
KAJG - Mount Carmel Municipal Airport (10 nm SW)
KDCY - Daviess County Airport (19 nm E)
KRSV - Crawford County Airport (20 nm N)
KSIV - Sullivan County Airport (26 nm N)
 
Loc | Ops | Rwys | IFR | FBO | Links
Com | Nav | Svcs | Stats | Notes
Aerial photo
No photo
 
Airport distance calculator
Flying to Klein-O'Neal Airport? Find the distance to fly.

From to IL16

Sunrise and sunset
Times for 07-Dec-2022
 Local
(UTC-6)
 Zulu
(UTC)
Morning civil twilight06:2612:26
Sunrise06:5612:56
Sunset16:2822:28
Evening civil twilight16:5722:57

Current date and time
Zulu (UTC)  07-Dec-2022 14:28:40
Local (UTC-6)  07-Dec-2022 08:28:40
 
METAR
KLWV 
5nm NW 
071402Z AUTO 32005KT 3SM BR OVC012 08/07 A3020 RMK AO2 T00780072 $
KAJG 
10nm SW 
071415Z AUTO 32005KT 1 1/4SM BR SCT003 OVC010 08/08 A3021 RMK AO2 T00830080
KDCY 
19nm E 
071410Z AUTO 00000KT 3/4SM BR BKN002 OVC009 08/08 A3019 RMK AO2 T00800078
TAF
KEVV 
38nm S 
071120Z 0712/0812 34003KT 1 1/2SM BR OVC003 FM071500 34004KT P6SM OVC007 FM071700 34004KT P6SM OVC010 FM071900 34004KT P6SM BKN023 FM080600 05003KT P6SM OVC019
KHNB 
38nm SE 
071123Z 0712/0812 00000KT 1/2SM FG OVC003 FM071400 34004KT 4SM BR OVC003 FM071600 32006KT P6SM BKN008 FM072200 01005KT P6SM BKN035 FM080600 04005KT P6SM BKN015
KHUF 
47nm N 
071120Z 0712/0812 01004KT 5SM BR FEW010 BKN025 TEMPO 0712/0714 4SM BR BKN011 FM071500 34003KT 6SM BR SCT011 OVC025 FM071800 32005KT P6SM BKN035 FM072300 01004KT 5SM BR SCT010 BKN015 FM080400 04004KT 3SM BR BKN010
NOTAMs
Click for the latest NOTAMs
NOTAMs are issued by the DoD/FAA and will open in a separate window not controlled by AirNav.

 

 
 

Would you like to see your business listed on this page?

 If your business provides an interesting product or service to pilots, flight crews, aircraft, or users of the Klein-O'Neal Airport, you should consider listing it here.  To start the listing process, click on the button below
 
Add a business
 

Other Pages about Klein-O'Neal Airport

Update a link
 
Copyright © AirNav, LLC. All rights reserved. Privacy Policy  Contact